createdAt,value
2022-09-21T00:01:14.479Z,6.18
2022-09-21T00:03:42.131Z,6.18
2022-09-21T00:06:14.655Z,6.19
2022-09-21T00:08:41.763Z,6.12
2022-09-21T00:11:12.524Z,6.05
2022-09-21T00:13:39.325Z,6.06
2022-09-21T00:16:09.650Z,6.08
2022-09-21T00:18:37.056Z,6.03
2022-09-21T00:21:08.803Z,5.97
2022-09-21T00:23:38.859Z,5.97
2022-09-21T00:26:20.475Z,5.95
2022-09-21T00:28:47.458Z,5.86
2022-09-21T00:31:17.556Z,5.76
2022-09-21T00:33:44.337Z,5.72
2022-09-21T00:36:13.589Z,5.69
2022-09-21T00:38:40.585Z,5.63
2022-09-21T00:41:08.629Z,5.63
2022-09-21T00:43:39.942Z,5.67
2022-09-21T00:46:29.903Z,5.71
2022-09-21T00:48:57.951Z,5.73
2022-09-21T00:51:25.519Z,5.77
2022-09-21T00:53:57.110Z,5.73
2022-09-21T00:56:24.315Z,5.72
2022-09-21T00:58:54.015Z,5.65
2022-09-21T01:01:20.977Z,5.61
2022-09-21T01:03:48.035Z,5.58
2022-09-21T01:06:17.999Z,5.54
2022-09-21T01:08:47.394Z,5.53
2022-09-21T01:11:17.279Z,5.49
2022-09-21T01:14:10.813Z,5.48
2022-09-21T01:16:56.232Z,5.45
2022-09-21T01:19:45.905Z,5.43
2022-09-21T01:22:26.894Z,5.39
2022-09-21T01:25:16.853Z,5.31
2022-09-21T01:27:57.413Z,5.30
2022-09-21T01:30:24.930Z,5.26
2022-09-21T01:33:07.643Z,5.20
2022-09-21T01:35:40.532Z,5.20
2022-09-21T01:38:10.587Z,5.22
2022-09-21T01:40:42.149Z,5.22
2022-09-21T01:43:14.064Z,5.23
2022-09-21T01:45:45.909Z,5.23
2022-09-21T01:48:14.524Z,5.28
2022-09-21T01:50:46.709Z,5.26
2022-09-21T01:53:18.174Z,5.22
2022-09-21T01:55:58.173Z,5.17
2022-09-21T01:58:33.125Z,5.18
2022-09-21T02:00:59.962Z,5.15
2022-09-21T02:03:36.280Z,5.13
2022-09-21T02:06:05.664Z,5.11
2022-09-21T02:08:33.277Z,5.11
2022-09-21T02:11:04.463Z,5.07
2022-09-21T02:13:39.268Z,5.03
2022-09-21T02:16:21.530Z,5.00
2022-09-21T02:19:10.827Z,4.97
2022-09-21T02:21:43.331Z,4.98
2022-09-21T02:24:44.434Z,4.88
2022-09-21T02:27:22.993Z,4.74
2022-09-21T02:29:57.899Z,4.67
2022-09-21T02:32:50.354Z,4.66
2022-09-21T02:35:32.406Z,4.66
2022-09-21T02:38:37.099Z,4.69
2022-09-21T02:41:27.777Z,4.73
2022-09-21T02:44:28.275Z,4.73
2022-09-21T02:47:18.944Z,4.75
2022-09-21T02:49:51.792Z,4.77
2022-09-21T02:52:20.252Z,4.77
2022-09-21T02:54:50.567Z,4.78
2022-09-21T02:57:19.200Z,4.83
2022-09-21T02:59:45.641Z,4.85
2022-09-21T03:02:12.799Z,4.86
2022-09-21T03:04:47.085Z,4.87
2022-09-21T03:07:16.660Z,4.86
2022-09-21T03:09:43.424Z,4.82
2022-09-21T03:12:11.534Z,4.79
2022-09-21T03:14:38.110Z,4.78
2022-09-21T03:17:04.760Z,4.74
2022-09-21T03:19:31.168Z,4.74
2022-09-21T03:21:57.744Z,4.72
2022-09-21T03:24:43.075Z,4.71
2022-09-21T03:27:09.429Z,4.66
2022-09-21T03:29:36.046Z,4.61
2022-09-21T03:32:03.561Z,4.57
2022-09-21T03:34:32.860Z,4.48
2022-09-21T03:37:00.287Z,4.43
2022-09-21T03:39:26.754Z,4.44
2022-09-21T03:41:56.944Z,4.41
2022-09-21T03:44:26.743Z,4.35
2022-09-21T03:46:53.818Z,4.32
2022-09-21T03:49:20.772Z,4.33
2022-09-21T03:51:47.592Z,4.34
2022-09-21T03:54:14.014Z,4.31
2022-09-21T03:56:40.589Z,4.31
2022-09-21T03:59:10.634Z,4.39
2022-09-21T04:01:40.479Z,4.39
2022-09-21T04:04:07.068Z,4.38
2022-09-21T04:06:33.924Z,4.33
2022-09-21T04:09:02.445Z,4.29
2022-09-21T04:11:29.985Z,4.27
2022-09-21T04:13:59.186Z,4.22
2022-09-21T04:16:27.052Z,4.22
2022-09-21T04:18:53.648Z,4.18
2022-09-21T04:21:21.602Z,4.17
2022-09-21T04:23:49.660Z,4.17
2022-09-21T04:26:27.618Z,4.11
2022-09-21T04:28:55.359Z,4.09
2022-09-21T04:31:23.362Z,4.16
2022-09-21T04:33:50.855Z,4.21
2022-09-21T04:36:20.559Z,4.24
2022-09-21T04:38:47.279Z,4.22
2022-09-21T04:41:14.896Z,4.22
2022-09-21T04:43:43.228Z,4.18
2022-09-21T04:46:12.497Z,4.12
2022-09-21T04:48:40.482Z,4.11
2022-09-21T04:51:08.395Z,4.16
2022-09-21T04:53:37.033Z,4.22
2022-09-21T04:56:05.047Z,4.23
2022-09-21T04:58:32.072Z,4.28
2022-09-21T05:00:58.780Z,4.28
2022-09-21T05:03:26.365Z,4.25
2022-09-21T05:05:55.819Z,4.22
2022-09-21T05:08:42.819Z,4.26
2022-09-21T05:11:13.038Z,4.29
2022-09-21T05:13:40.089Z,4.30
2022-09-21T05:16:06.661Z,4.35
2022-09-21T05:18:33.257Z,4.34
2022-09-21T05:21:01.428Z,4.39
2022-09-21T05:23:30.880Z,4.45
2022-09-21T05:26:00.449Z,4.51
2022-09-21T05:28:27.717Z,4.55
2022-09-21T05:31:17.326Z,4.53
2022-09-21T05:34:05.751Z,4.50
2022-09-21T05:37:03.051Z,4.47
2022-09-21T05:39:29.781Z,4.44
2022-09-21T05:41:56.821Z,4.40
2022-09-21T05:44:23.644Z,4.32
2022-09-21T05:47:06.756Z,4.33
2022-09-21T05:49:39.584Z,4.27
2022-09-21T05:52:17.986Z,4.26
2022-09-21T05:54:51.954Z,4.28
2022-09-21T05:57:31.934Z,4.30
2022-09-21T06:00:12.283Z,4.32
2022-09-21T06:02:50.872Z,4.31
2022-09-21T06:05:17.834Z,4.39
2022-09-21T06:07:44.331Z,4.45
2022-09-21T06:10:13.190Z,4.44
2022-09-21T06:12:40.277Z,4.50
2022-09-21T06:15:10.506Z,4.54
2022-09-21T06:17:36.886Z,4.62
2022-09-21T06:20:03.754Z,4.66
2022-09-21T06:22:30.113Z,4.76
2022-09-21T06:24:56.666Z,4.80
2022-09-21T06:27:23.082Z,4.81
2022-09-21T06:29:49.583Z,4.86
2022-09-21T06:32:16.029Z,4.91
2022-09-21T06:34:42.941Z,4.98
2022-09-21T06:37:09.453Z,5.03
2022-09-21T06:39:35.991Z,5.08
2022-09-21T06:42:02.403Z,5.16
2022-09-21T06:44:29.876Z,5.30
2022-09-21T06:46:56.640Z,5.39
2022-09-21T06:49:24.123Z,5.54
2022-09-21T06:51:50.540Z,5.49
2022-09-21T06:54:18.331Z,5.48
2022-09-21T06:56:45.055Z,5.51
2022-09-21T06:59:11.728Z,5.65
2022-09-21T07:01:38.257Z,5.73
2022-09-21T07:04:06.943Z,5.83
2022-09-21T07:06:33.372Z,5.86
2022-09-21T07:11:49.703Z,6.09
2022-09-21T07:14:16.230Z,6.20
2022-09-21T07:16:43.340Z,6.32
2022-09-21T07:19:11.800Z,6.43
2022-09-21T07:21:39.215Z,6.45
2022-09-21T07:24:11.090Z,6.44
2022-09-21T07:26:38.582Z,6.49
2022-09-21T07:29:05.370Z,6.54
2022-09-21T07:31:32.176Z,6.64
2022-09-21T07:33:59.067Z,6.73
2022-09-21T07:36:26.135Z,6.66
2022-09-21T07:38:53.896Z,6.69
2022-09-21T07:41:20.935Z,6.81
2022-09-21T07:43:47.513Z,6.85
2022-09-21T07:46:15.436Z,6.96
2022-09-21T07:48:42.249Z,6.96
2022-09-21T07:51:12.151Z,6.91
2022-09-21T07:53:41.436Z,6.78
2022-09-21T07:56:11.073Z,6.90
2022-09-21T07:58:57.140Z,6.86
2022-09-21T08:01:25.232Z,7.00
2022-09-21T08:03:53.970Z,7.10
2022-09-21T08:06:22.288Z,7.12
2022-09-21T08:08:52.544Z,7.07
2022-09-21T08:11:22.700Z,7.25
2022-09-21T08:13:52.572Z,7.36
2022-09-21T08:16:18.951Z,7.40
2022-09-21T08:18:45.562Z,7.42
2022-09-21T08:21:12.336Z,7.58
2022-09-21T08:23:40.541Z,7.78
2022-09-21T08:26:07.749Z,7.99
2022-09-21T08:28:36.228Z,8.04
2022-09-21T08:31:04.836Z,8.17
2022-09-21T08:33:31.688Z,8.33
2022-09-21T08:36:00.298Z,8.50
2022-09-21T08:38:27.712Z,8.61
2022-09-21T08:40:57.229Z,8.64
2022-09-21T08:43:40.221Z,8.60
2022-09-21T08:46:13.082Z,8.71
2022-09-21T08:48:46.099Z,8.77
2022-09-21T08:51:17.618Z,8.74
2022-09-21T08:53:46.465Z,8.78
2022-09-21T08:56:14.914Z,8.91
2022-09-21T08:58:43.371Z,8.93
2022-09-21T09:01:31.700Z,9.08
2022-09-21T09:04:16.157Z,9.25
2022-09-21T09:07:25.838Z,9.38
2022-09-21T09:10:35.954Z,9.53
2022-09-21T09:13:33.268Z,9.68
2022-09-21T09:16:35.149Z,9.85
2022-09-21T09:19:24.899Z,10.12
2022-09-21T09:21:51.876Z,10.31
2022-09-21T09:24:24.464Z,10.49
2022-09-21T09:26:56.449Z,10.63
2022-09-21T09:30:03.605Z,10.88
2022-09-21T09:32:54.833Z,11.04
2022-09-21T09:35:27.797Z,11.27
2022-09-21T09:38:11.913Z,11.36
2022-09-21T09:41:09.876Z,11.43
2022-09-21T09:43:55.130Z,11.58
2022-09-21T09:46:34.786Z,11.89
2022-09-21T09:49:10.469Z,11.91
2022-09-21T09:51:40.132Z,12.18
2022-09-21T09:54:14.386Z,12.29
2022-09-21T09:56:41.625Z,12.42
2022-09-21T09:59:40.782Z,12.61
2022-09-21T10:02:22.609Z,12.59
2022-09-21T10:05:05.829Z,12.66
2022-09-21T10:07:45.870Z,12.71
2022-09-21T10:10:33.233Z,12.79
2022-09-21T10:13:02.696Z,12.91
2022-09-21T10:15:29.892Z,12.97
2022-09-21T10:18:15.329Z,13.17
2022-09-21T10:20:57.488Z,13.38
2022-09-21T10:23:24.977Z,13.52
2022-09-21T10:25:57.877Z,13.69
2022-09-21T10:28:25.063Z,13.63
2022-09-21T10:31:08.694Z,13.60
2022-09-21T10:33:46.990Z,13.54
2022-09-21T10:36:35.075Z,13.24
2022-09-21T10:39:23.423Z,13.24
2022-09-21T10:42:04.963Z,13.50
2022-09-21T10:44:40.910Z,13.62
2022-09-21T10:47:24.049Z,13.75
2022-09-21T10:49:54.320Z,13.80
2022-09-21T10:52:25.147Z,13.81
2022-09-21T10:54:55.932Z,13.99
2022-09-21T10:57:25.538Z,14.14
2022-09-21T10:59:52.196Z,14.23
2022-09-21T11:02:37.047Z,13.99
2022-09-21T11:05:21.834Z,13.83
2022-09-21T11:08:04.517Z,13.99
2022-09-21T11:10:43.934Z,14.14
2022-09-21T11:13:28.531Z,14.34
2022-09-21T11:15:59.765Z,14.66
2022-09-21T11:18:44.795Z,14.46
2022-09-21T11:21:23.540Z,14.12
2022-09-21T11:23:55.232Z,13.96
2022-09-21T11:26:25.471Z,14.01
2022-09-21T11:28:54.602Z,13.94
2022-09-21T11:31:42.490Z,14.21
2022-09-21T11:34:40.645Z,14.51
2022-09-21T11:37:22.369Z,14.69
2022-09-21T11:39:55.988Z,14.82
2022-09-21T11:42:48.896Z,14.91
2022-09-21T11:45:50.619Z,15.10
2022-09-21T11:48:46.482Z,15.08
2022-09-21T11:51:24.112Z,15.17
2022-09-21T11:54:45.261Z,15.19
2022-09-21T11:57:39.573Z,15.31
2022-09-21T12:00:16.847Z,15.32
2022-09-21T12:02:46.489Z,15.45
2022-09-21T12:05:16.023Z,15.53
2022-09-21T12:08:15.078Z,15.55
2022-09-21T12:11:00.137Z,15.62
2022-09-21T12:13:37.910Z,15.74
2022-09-21T12:16:16.766Z,15.92
2022-09-21T12:19:24.854Z,16.01
2022-09-21T12:22:09.404Z,16.18
2022-09-21T12:24:42.495Z,16.30
2022-09-21T12:27:32.204Z,16.40
2022-09-21T12:30:17.554Z,16.63
2022-09-21T12:33:01.572Z,16.69
2022-09-21T12:35:28.013Z,16.80
2022-09-21T12:38:05.184Z,16.75
2022-09-21T12:40:50.103Z,16.58
2022-09-21T12:43:30.955Z,16.33
2022-09-21T12:46:02.561Z,16.37
2022-09-21T12:48:32.856Z,16.54
2022-09-21T12:51:25.814Z,16.69
2022-09-21T12:53:55.482Z,16.71
2022-09-21T12:56:45.237Z,16.62
2022-09-21T12:59:27.369Z,16.54
2022-09-21T13:02:13.009Z,16.70
2022-09-21T13:04:50.294Z,16.94
2022-09-21T13:07:16.670Z,16.91
2022-09-21T13:09:46.260Z,17.12
2022-09-21T13:12:24.776Z,17.43
2022-09-21T13:15:02.367Z,17.50
2022-09-21T13:17:33.800Z,17.13
2022-09-21T13:20:05.283Z,16.79
2022-09-21T13:22:36.667Z,16.55
2022-09-21T13:25:18.613Z,16.55
2022-09-21T13:28:04.340Z,16.18
2022-09-21T13:30:35.621Z,16.07
2022-09-21T13:33:05.456Z,15.91
2022-09-21T13:36:03.943Z,15.72
2022-09-21T13:38:30.353Z,15.55
2022-09-21T13:41:01.277Z,15.42
2022-09-21T13:43:58.688Z,15.31
2022-09-21T13:46:37.056Z,15.20
2022-09-21T13:49:15.456Z,15.12
2022-09-21T13:52:00.299Z,14.99
2022-09-21T13:54:49.930Z,14.84
2022-09-21T13:57:28.329Z,14.73
2022-09-21T14:00:12.993Z,14.66
2022-09-21T14:02:43.081Z,14.55
2022-09-21T14:05:34.475Z,14.48
2022-09-21T14:08:14.066Z,14.42
2022-09-21T14:10:53.179Z,14.33
2022-09-21T14:13:31.542Z,14.59
2022-09-21T14:16:29.256Z,15.00
2022-09-21T14:18:56.348Z,15.34
2022-09-21T14:21:23.238Z,15.73
2022-09-21T14:24:08.137Z,16.08
2022-09-21T14:26:43.672Z,16.34
2022-09-21T14:29:16.146Z,16.52
2022-09-21T14:31:43.128Z,16.69
2022-09-21T14:34:23.670Z,16.86
2022-09-21T14:36:54.223Z,17.02
2022-09-21T14:39:32.123Z,17.13
2022-09-21T14:42:03.230Z,17.23
2022-09-21T14:44:31.601Z,17.42
2022-09-21T14:47:25.422Z,17.61
2022-09-21T14:50:21.435Z,17.78
2022-09-21T14:53:08.497Z,17.80
2022-09-21T14:55:50.005Z,17.88
2022-09-21T14:58:32.534Z,18.08
2022-09-21T15:01:26.238Z,18.17
2022-09-21T15:04:26.765Z,18.25
2022-09-21T15:07:15.121Z,18.03
2022-09-21T15:10:19.696Z,18.02
2022-09-21T15:13:08.332Z,17.92
2022-09-21T15:15:41.418Z,17.89
2022-09-21T15:18:39.780Z,17.74
2022-09-21T15:21:21.905Z,17.52
2022-09-21T15:23:51.344Z,17.25
2022-09-21T15:26:29.768Z,17.08
2022-09-21T15:29:09.690Z,16.96
2022-09-21T15:31:39.817Z,16.66
2022-09-21T15:34:08.242Z,16.42
2022-09-21T15:36:39.445Z,16.14
2022-09-21T15:39:06.681Z,15.89
2022-09-21T15:41:39.548Z,15.65
2022-09-21T15:44:15.001Z,15.58
2022-09-21T15:46:43.224Z,15.40
2022-09-21T15:49:15.357Z,15.21
2022-09-21T15:51:45.424Z,15.10
2022-09-21T15:54:41.313Z,14.98
2022-09-21T15:57:25.262Z,14.80
2022-09-21T15:59:52.090Z,14.63
2022-09-21T16:02:23.466Z,14.51
2022-09-21T16:04:52.507Z,14.21
2022-09-21T16:07:36.930Z,13.94
2022-09-21T16:10:29.413Z,13.79
2022-09-21T16:13:40.045Z,13.77
2022-09-21T16:16:10.024Z,13.61
2022-09-21T16:18:59.481Z,13.53
2022-09-21T16:21:34.581Z,13.57
2022-09-21T16:24:17.915Z,13.58
2022-09-21T16:27:00.147Z,13.44
2022-09-21T16:29:37.766Z,13.32
2022-09-21T16:32:28.867Z,13.08
2022-09-21T16:35:25.224Z,13.11
2022-09-21T16:37:51.791Z,13.13
2022-09-21T16:40:19.261Z,13.18
2022-09-21T16:42:46.111Z,13.14
2022-09-21T16:45:22.936Z,12.97
2022-09-21T16:47:49.341Z,12.76
2022-09-21T16:50:20.223Z,12.61
2022-09-21T16:52:46.924Z,12.44
2022-09-21T16:55:17.919Z,12.28
2022-09-21T16:57:45.916Z,12.19
2022-09-21T17:00:14.204Z,12.06
2022-09-21T17:02:42.635Z,12.00
2022-09-21T17:05:10.715Z,11.87
2022-09-21T17:07:37.256Z,11.69
2022-09-21T17:10:12.824Z,11.64
2022-09-21T17:12:39.329Z,11.57
2022-09-21T17:15:07.850Z,11.44
2022-09-21T17:17:34.279Z,11.34
2022-09-21T17:20:06.969Z,11.24
2022-09-21T17:22:33.455Z,11.13
2022-09-21T17:24:59.965Z,11.08
2022-09-21T17:27:26.974Z,10.94
2022-09-21T17:29:56.951Z,10.86
2022-09-21T17:32:24.758Z,10.66
2022-09-21T17:35:18.480Z,10.49
2022-09-21T17:37:44.964Z,10.34
2022-09-21T17:40:12.415Z,10.22
2022-09-21T17:42:41.828Z,10.18
2022-09-21T17:45:44.945Z,10.06
2022-09-21T17:48:19.308Z,10.05
2022-09-21T17:50:46.301Z,10.02
2022-09-21T17:53:31.693Z,9.95
2022-09-21T17:56:02.434Z,9.87
2022-09-21T17:58:49.975Z,9.73
2022-09-21T18:01:39.547Z,9.65
2022-09-21T18:04:08.186Z,9.56
2022-09-21T18:06:34.878Z,9.48
2022-09-21T18:09:01.594Z,9.42
2022-09-21T18:11:27.985Z,9.33
2022-09-21T18:13:57.326Z,9.27
2022-09-21T18:16:34.287Z,9.19
2022-09-21T18:19:21.594Z,9.12
2022-09-21T18:21:52.534Z,8.98
2022-09-21T18:24:20.712Z,8.82
2022-09-21T18:26:49.004Z,8.71
2022-09-21T18:29:39.851Z,8.66
2022-09-21T18:32:26.968Z,8.62
2022-09-21T18:35:13.304Z,8.62
2022-09-21T18:38:17.530Z,8.58
2022-09-21T18:41:09.265Z,8.53
2022-09-21T18:44:00.529Z,8.49
2022-09-21T18:46:55.708Z,8.47
2022-09-21T18:49:43.991Z,8.44
2022-09-21T18:52:19.912Z,8.33
2022-09-21T18:54:46.473Z,8.22
2022-09-21T18:57:15.182Z,8.11
2022-09-21T18:59:42.295Z,8.04
2022-09-21T19:02:15.376Z,8.00
2022-09-21T19:04:43.909Z,7.97
2022-09-21T19:07:40.127Z,7.95
2022-09-21T19:10:28.480Z,7.90
2022-09-21T19:13:35.877Z,7.87
2022-09-21T19:16:05.707Z,7.82
2022-09-21T19:19:01.604Z,7.80
2022-09-21T19:21:42.303Z,7.73
2022-09-21T19:24:21.508Z,7.66
2022-09-21T19:27:07.541Z,7.60
2022-09-21T19:30:05.578Z,7.53
2022-09-21T19:32:45.656Z,7.47
2022-09-21T19:35:21.605Z,7.46
2022-09-21T19:37:49.302Z,7.45
2022-09-21T19:40:17.831Z,7.41
2022-09-21T19:43:13.343Z,7.37
2022-09-21T19:45:45.769Z,7.35
2022-09-21T19:48:16.184Z,7.33
2022-09-21T19:50:48.446Z,7.31
2022-09-21T19:53:33.968Z,7.27
2022-09-21T19:56:20.067Z,7.24
2022-09-21T19:59:05.389Z,7.14
2022-09-21T20:01:36.653Z,7.09
2022-09-21T20:04:06.265Z,7.08
2022-09-21T20:06:44.135Z,7.04
2022-09-21T20:09:26.071Z,7.04
2022-09-21T20:12:25.113Z,7.04
2022-09-21T20:15:00.400Z,7.05
2022-09-21T20:17:44.417Z,7.04
2022-09-21T20:20:23.958Z,7.04
2022-09-21T20:22:51.219Z,7.00
2022-09-21T20:25:26.167Z,6.98
2022-09-21T20:27:57.897Z,6.94
2022-09-21T20:30:32.593Z,6.90
2022-09-21T20:33:05.212Z,6.85
2022-09-21T20:35:31.789Z,6.81
2022-09-21T20:38:02.188Z,6.82
2022-09-21T20:40:32.332Z,6.83
2022-09-21T20:43:01.125Z,6.84
2022-09-21T20:45:28.731Z,6.82
2022-09-21T20:47:57.229Z,6.83
2022-09-21T20:50:30.228Z,6.82
2022-09-21T20:52:56.889Z,6.82
2022-09-21T20:55:24.245Z,6.82
2022-09-21T20:57:50.675Z,6.81
2022-09-21T21:00:19.302Z,6.81
2022-09-21T21:02:45.820Z,6.80
2022-09-21T21:05:12.539Z,6.76
2022-09-21T21:07:42.431Z,6.75
2022-09-21T21:10:14.130Z,6.72
2022-09-21T21:12:42.209Z,6.72
2022-09-21T21:15:10.010Z,6.66
2022-09-21T21:17:36.700Z,6.62
2022-09-21T21:20:04.283Z,6.60
2022-09-21T21:22:31.086Z,6.53
2022-09-21T21:24:57.567Z,6.49
2022-09-21T21:27:25.881Z,6.48
2022-09-21T21:29:53.850Z,6.45
2022-09-21T21:32:25.650Z,6.41
2022-09-21T21:34:53.116Z,6.34
2022-09-21T21:37:24.393Z,6.32
2022-09-21T21:39:51.736Z,6.28
2022-09-21T21:42:18.472Z,6.29
2022-09-21T21:44:46.692Z,6.25
2022-09-21T21:47:38.589Z,6.24
2022-09-21T21:50:00.453Z,6.24
2022-09-21T21:52:26.980Z,6.24
2022-09-21T21:54:53.377Z,6.25
2022-09-21T21:57:19.978Z,6.25
2022-09-21T21:59:46.364Z,6.27
2022-09-21T22:02:13.016Z,6.24
2022-09-21T22:04:39.516Z,6.23
2022-09-21T22:07:06.072Z,6.19
2022-09-21T22:09:32.993Z,6.18
2022-09-21T22:12:01.835Z,6.13
2022-09-21T22:14:28.226Z,6.09
2022-09-21T22:16:54.810Z,6.07
2022-09-21T22:19:21.282Z,6.05
2022-09-21T22:21:53.206Z,6.03
2022-09-21T22:24:21.092Z,5.96
2022-09-21T22:26:48.565Z,5.97
2022-09-21T22:29:16.941Z,5.96
2022-09-21T22:31:48.630Z,5.97
2022-09-21T22:34:15.962Z,5.96
2022-09-21T22:36:45.735Z,5.94
2022-09-21T22:39:12.974Z,5.95
2022-09-21T22:41:42.021Z,5.90
2022-09-21T22:44:10.071Z,5.87
2022-09-21T22:46:37.240Z,5.86
2022-09-21T22:49:04.074Z,5.88
2022-09-21T22:51:30.758Z,5.90
2022-09-21T22:53:57.944Z,5.89
2022-09-21T22:56:32.354Z,5.94
2022-09-21T22:59:00.927Z,5.95
2022-09-21T23:01:34.004Z,5.92
2022-09-21T23:04:05.126Z,5.90
2022-09-21T23:06:34.821Z,5.85
2022-09-21T23:09:03.582Z,5.80
2022-09-21T23:11:35.576Z,5.76
2022-09-21T23:14:02.654Z,5.72
2022-09-21T23:16:30.009Z,5.68
2022-09-21T23:18:57.429Z,5.66
2022-09-21T23:21:26.142Z,5.62
2022-09-21T23:23:59.584Z,5.61
2022-09-21T23:26:27.966Z,5.58
2022-09-21T23:29:02.915Z,5.57
2022-09-21T23:31:31.353Z,5.59
2022-09-21T23:34:04.772Z,5.57
2022-09-21T23:36:32.241Z,5.55
2022-09-21T23:38:58.776Z,5.54
2022-09-21T23:41:26.751Z,5.56
2022-09-21T23:43:53.724Z,5.54
2022-09-21T23:46:24.489Z,5.57
2022-09-21T23:48:51.043Z,5.55
2022-09-21T23:51:18.404Z,5.54
2022-09-21T23:53:45.544Z,5.57
2022-09-21T23:56:17.644Z,5.55
2022-09-21T23:58:44.377Z,5.52
